createdAt,value
2022-07-26T00:02:56.602Z,100109.88
2022-07-26T00:08:11.134Z,100123.00
2022-07-26T00:13:13.629Z,100104.16
2022-07-26T00:18:17.367Z,100116.69
2022-07-26T00:23:22.468Z,100085.41
2022-07-26T00:28:25.363Z,100130.81
2022-07-26T00:33:28.051Z,100150.91
2022-07-26T00:38:30.702Z,100136.28
2022-07-26T00:43:33.342Z,100076.44
2022-07-26T00:48:37.438Z,100128.13
2022-07-26T00:53:39.849Z,100105.19
2022-07-26T00:58:45.905Z,100136.44
2022-07-26T01:03:53.628Z,100144.09
2022-07-26T01:08:56.291Z,100136.44
2022-07-26T01:13:58.753Z,100137.66
2022-07-26T01:19:01.517Z,100100.84
2022-07-26T01:24:04.221Z,100116.94
2022-07-26T01:29:06.939Z,100134.47
2022-07-26T01:34:09.718Z,100102.84
2022-07-26T01:39:12.706Z,100103.38
2022-07-26T01:44:15.116Z,100096.84
2022-07-26T01:49:17.866Z,100105.91
2022-07-26T01:54:22.591Z,100108.06
2022-07-26T01:59:27.021Z,100126.31
2022-07-26T02:04:47.678Z,100094.66
2022-07-26T02:09:50.290Z,100120.22
2022-07-26T02:14:53.123Z,100109.81
2022-07-26T02:19:55.602Z,100091.63
2022-07-26T02:25:02.973Z,100106.47
2022-07-26T02:30:07.817Z,100102.91
2022-07-26T02:35:10.768Z,100140.44
2022-07-26T02:40:29.210Z,100116.44
2022-07-26T02:45:31.862Z,100135.97
2022-07-26T02:50:34.439Z,100127.34
2022-07-26T02:55:36.829Z,100127.34
2022-07-26T03:00:39.181Z,100128.63
2022-07-26T03:05:41.670Z,100134.88
2022-07-26T03:10:44.016Z,100119.81
2022-07-26T03:15:46.543Z,100113.75
2022-07-26T03:20:48.944Z,100100.69
2022-07-26T03:25:51.313Z,100129.50
2022-07-26T03:30:53.816Z,100119.25
2022-07-26T03:35:56.316Z,100122.97
2022-07-26T03:40:58.794Z,100123.69
2022-07-26T03:46:01.199Z,100126.34
2022-07-26T03:51:03.568Z,100129.97
2022-07-26T03:56:24.833Z,100106.50
2022-07-26T04:01:35.578Z,100146.44
2022-07-26T04:06:38.224Z,100153.47
2022-07-26T04:11:40.852Z,100133.88
2022-07-26T04:16:43.953Z,100171.22
2022-07-26T04:21:49.545Z,100128.78
2022-07-26T04:26:52.196Z,100168.59
2022-07-26T04:31:54.570Z,100166.88
2022-07-26T04:36:56.967Z,100145.34
2022-07-26T04:41:59.324Z,100167.31
2022-07-26T04:47:01.735Z,100137.66
2022-07-26T04:52:04.849Z,100146.81
2022-07-26T04:57:10.367Z,100138.56
2022-07-26T05:02:15.726Z,100186.59
2022-07-26T05:07:20.794Z,100210.19
2022-07-26T05:12:23.147Z,100171.44
2022-07-26T05:17:26.080Z,100187.22
2022-07-26T05:22:29.061Z,100203.97
2022-07-26T05:27:31.532Z,100174.81
2022-07-26T05:32:34.598Z,100209.63
2022-07-26T05:37:37.476Z,100177.00
2022-07-26T05:42:40.146Z,100149.69
2022-07-26T05:47:42.757Z,100144.94
2022-07-26T05:52:45.234Z,100056.84
2022-07-26T05:57:50.546Z,100123.84
2022-07-26T06:02:53.045Z,100188.09
2022-07-26T06:07:55.581Z,100164.97
2022-07-26T06:13:01.479Z,100100.75
2022-07-26T06:18:04.119Z,100172.06
2022-07-26T06:23:07.210Z,100029.03
2022-07-26T06:28:11.382Z,100125.88
2022-07-26T06:33:14.071Z,100020.41
2022-07-26T06:38:16.604Z,100108.34
2022-07-26T06:43:19.197Z,100086.50
2022-07-26T06:48:21.773Z,100093.19
2022-07-26T06:53:24.221Z,100103.50
2022-07-26T06:58:27.078Z,100163.41
2022-07-26T07:03:32.335Z,100091.25
2022-07-26T07:08:34.969Z,100082.25
2022-07-26T07:13:37.591Z,100138.53
2022-07-26T07:18:40.062Z,100051.97
2022-07-26T07:23:42.476Z,100069.94
2022-07-26T07:28:45.012Z,100124.75
2022-07-26T07:33:53.575Z,100091.22
2022-07-26T07:38:56.410Z,100027.50
2022-07-26T07:43:59.219Z,100134.59
2022-07-26T07:49:01.879Z,100012.31
2022-07-26T07:54:05.932Z,99983.94
2022-07-26T07:59:09.171Z,99971.13
2022-07-26T08:04:12.346Z,99990.34
2022-07-26T08:09:22.664Z,100019.94
2022-07-26T08:14:25.413Z,99986.31
2022-07-26T08:19:31.051Z,100124.63
2022-07-26T08:24:47.612Z,100154.97
2022-07-26T08:29:50.282Z,100036.19
2022-07-26T08:34:52.853Z,100075.72
2022-07-26T08:39:55.422Z,100091.97
2022-07-26T08:44:58.373Z,100018.13
2022-07-26T08:50:00.842Z,99984.00
2022-07-26T08:55:03.389Z,100037.97
2022-07-26T09:00:38.128Z,100046.59
2022-07-26T09:05:41.278Z,100147.53
2022-07-26T09:10:43.692Z,100123.41
2022-07-26T09:15:46.356Z,100104.28
2022-07-26T09:20:48.994Z,100071.00
2022-07-26T09:25:51.525Z,100078.47
2022-07-26T09:31:00.601Z,100034.16
2022-07-26T09:36:06.826Z,100030.34
2022-07-26T09:41:37.541Z,100016.31
2022-07-26T09:46:53.461Z,99947.22
2022-07-26T09:51:56.109Z,100083.06
2022-07-26T09:56:59.051Z,99940.66
2022-07-26T10:02:02.247Z,99936.28
2022-07-26T10:07:05.243Z,99921.28
2022-07-26T10:12:09.954Z,99943.41
2022-07-26T10:17:38.198Z,100068.09
2022-07-26T10:22:47.401Z,100006.72
2022-07-26T10:27:54.999Z,100014.16
2022-07-26T10:33:06.920Z,100037.81
2022-07-26T10:38:26.649Z,99947.38
2022-07-26T10:43:40.656Z,99918.56
2022-07-26T10:48:56.991Z,100051.66
2022-07-26T10:54:10.596Z,100053.47
2022-07-26T10:59:13.346Z,100046.59
2022-07-26T11:04:20.340Z,100031.53
2022-07-26T11:09:24.137Z,100005.41
2022-07-26T11:14:26.933Z,99975.50
2022-07-26T11:19:29.871Z,100018.91
2022-07-26T11:24:32.447Z,99968.97
2022-07-26T11:29:38.701Z,99967.03
2022-07-26T11:34:45.598Z,100004.69
2022-07-26T11:39:48.028Z,99965.91
2022-07-26T11:44:51.346Z,99958.22
2022-07-26T11:50:18.400Z,99988.63
2022-07-26T11:55:29.679Z,99965.84
2022-07-26T12:00:32.227Z,99966.66
2022-07-26T12:05:34.719Z,99943.56
2022-07-26T12:10:37.392Z,99959.69
2022-07-26T12:15:50.841Z,99954.91
2022-07-26T12:21:07.819Z,99948.75
2022-07-26T12:26:31.414Z,99942.63
2022-07-26T12:31:34.667Z,99899.66
2022-07-26T12:36:37.237Z,99922.06
2022-07-26T12:41:40.787Z,99923.25
2022-07-26T12:46:47.030Z,99887.94
2022-07-26T12:51:49.724Z,99913.25
2022-07-26T12:56:54.730Z,99895.59
2022-07-26T13:01:57.314Z,99905.94
2022-07-26T13:06:59.901Z,99909.47
2022-07-26T13:12:04.156Z,99902.75
2022-07-26T13:17:07.537Z,99892.00
2022-07-26T13:22:10.948Z,99892.06
2022-07-26T13:27:13.592Z,99876.06
2022-07-26T13:32:17.821Z,99881.63
2022-07-26T13:37:20.260Z,99892.63
2022-07-26T13:42:22.853Z,99827.59
2022-07-26T13:47:25.358Z,99805.63
2022-07-26T13:52:27.925Z,99797.03
2022-07-26T13:57:49.098Z,99765.63
2022-07-26T14:02:52.995Z,99783.97
2022-07-26T14:07:56.865Z,99784.03
2022-07-26T14:13:06.089Z,99770.25
2022-07-26T14:18:08.648Z,99770.03
2022-07-26T14:23:11.140Z,99864.19
2022-07-26T14:28:16.299Z,99709.66
2022-07-26T14:33:21.948Z,99745.94
2022-07-26T14:38:29.610Z,99762.81
2022-07-26T14:43:32.661Z,99822.88
2022-07-26T14:48:53.460Z,99828.56
2022-07-26T14:53:56.807Z,99821.09
2022-07-26T14:58:59.171Z,99825.19
2022-07-26T15:04:01.651Z,99805.72
2022-07-26T15:09:05.036Z,99807.78
2022-07-26T15:14:07.780Z,99814.69
2022-07-26T15:19:11.605Z,99813.91
2022-07-26T15:24:14.860Z,99800.72
2022-07-26T15:29:17.377Z,99778.72
2022-07-26T15:34:19.873Z,99801.16
2022-07-26T15:39:22.346Z,99797.88
2022-07-26T15:44:25.734Z,99805.44
2022-07-26T15:49:29.028Z,99799.81
2022-07-26T15:54:31.542Z,99769.03
2022-07-26T15:59:36.590Z,99806.72
2022-07-26T16:04:39.042Z,99795.97
2022-07-26T16:09:41.598Z,99809.56
2022-07-26T16:14:44.080Z,99797.47
2022-07-26T16:19:46.450Z,99794.66
2022-07-26T16:24:49.175Z,99794.56
2022-07-26T16:29:53.909Z,99775.06
2022-07-26T16:34:56.370Z,99790.75
2022-07-26T16:39:58.908Z,99819.72
2022-07-26T16:45:01.336Z,99790.56
2022-07-26T16:50:04.605Z,99832.50
2022-07-26T16:55:11.372Z,99732.34
2022-07-26T17:00:16.499Z,99756.63
2022-07-26T17:05:19.075Z,99710.59
2022-07-26T17:10:21.864Z,99854.31
2022-07-26T17:15:27.649Z,99744.88
2022-07-26T17:20:30.557Z,99731.56
2022-07-26T17:25:33.319Z,99793.59
2022-07-26T17:30:35.948Z,99742.19
2022-07-26T17:35:38.563Z,99795.63
2022-07-26T17:40:41.189Z,99825.47
2022-07-26T17:45:45.347Z,99872.47
2022-07-26T17:50:47.933Z,99861.03
2022-07-26T17:55:50.301Z,99841.28
2022-07-26T18:00:55.673Z,99876.72
2022-07-26T18:05:58.184Z,99858.09
2022-07-26T18:11:03.309Z,99886.72
2022-07-26T18:16:06.536Z,99846.31
2022-07-26T18:21:08.968Z,99887.09
2022-07-26T18:26:11.413Z,99871.66
2022-07-26T18:31:14.013Z,99898.50
2022-07-26T18:36:16.765Z,99880.50
2022-07-26T18:41:19.421Z,99911.88
2022-07-26T18:46:21.869Z,99901.91
2022-07-26T18:51:26.597Z,99906.66
2022-07-26T18:56:29.607Z,99925.06
2022-07-26T19:01:32.058Z,99901.66
2022-07-26T19:06:35.342Z,99931.66
2022-07-26T19:11:37.968Z,99914.34
2022-07-26T19:16:40.489Z,99945.00
2022-07-26T19:21:47.248Z,99958.16
2022-07-26T19:26:52.107Z,99968.47
2022-07-26T19:31:54.648Z,99941.38
2022-07-26T19:36:57.149Z,99937.16
2022-07-26T19:41:59.812Z,99956.03
2022-07-26T19:47:02.196Z,99920.19
2022-07-26T19:52:11.728Z,99950.72
2022-07-26T19:57:14.461Z,99934.16
2022-07-26T20:02:17.934Z,99967.94
2022-07-26T20:07:20.689Z,99958.69
2022-07-26T20:12:23.155Z,99987.59
2022-07-26T20:17:26.541Z,99904.81
2022-07-26T20:22:34.929Z,99977.72
2022-07-26T20:27:37.502Z,99987.81
2022-07-26T20:32:40.646Z,99986.97
2022-07-26T20:37:44.057Z,99961.31
2022-07-26T20:42:50.056Z,99985.69
2022-07-26T20:47:53.929Z,99991.03
2022-07-26T20:52:56.488Z,99965.56
2022-07-26T20:57:58.899Z,99979.50
2022-07-26T21:03:01.669Z,99978.50
2022-07-26T21:08:04.734Z,99970.72
2022-07-26T21:13:07.298Z,99998.34
2022-07-26T21:18:10.120Z,99984.88
2022-07-26T21:23:17.792Z,99977.41
2022-07-26T21:28:21.519Z,99984.88
2022-07-26T21:33:26.932Z,99975.44
2022-07-26T21:38:32.469Z,99994.44
2022-07-26T21:43:35.163Z,99970.22
2022-07-26T21:48:38.594Z,99969.75
2022-07-26T21:53:41.239Z,99926.00
2022-07-26T21:58:43.648Z,99972.78
2022-07-26T22:03:46.132Z,99949.88
2022-07-26T22:08:48.605Z,99953.44
2022-07-26T22:13:51.280Z,99977.38
2022-07-26T22:18:53.776Z,99937.16
2022-07-26T22:23:56.277Z,99937.66
2022-07-26T22:28:59.782Z,99959.06
2022-07-26T22:34:02.748Z,99963.28
2022-07-26T22:39:05.221Z,99973.66
2022-07-26T22:44:11.572Z,99984.88
2022-07-26T22:49:15.023Z,99973.94
2022-07-26T22:54:17.670Z,99949.28
2022-07-26T22:59:22.057Z,99984.78
2022-07-26T23:04:24.445Z,99951.28
2022-07-26T23:09:27.208Z,99993.19
2022-07-26T23:14:29.630Z,99996.22
2022-07-26T23:19:31.984Z,99973.66
2022-07-26T23:24:35.336Z,99974.31
2022-07-26T23:29:37.872Z,99953.03
2022-07-26T23:34:40.264Z,99991.50
2022-07-26T23:39:42.801Z,99966.16
2022-07-26T23:44:45.257Z,99939.28
2022-07-26T23:49:47.672Z,99976.97
2022-07-26T23:54:50.148Z,99983.47
2022-07-26T23:59:52.501Z,99959.16
